Terminal Aerodrome Forecast
Issued by NWS Albany, NY

Home | Current Version | Previous Version | Text Only | Print | Product List | Glossary On
Versions: 1 2 3 4 5 6 7 8 9 10 11 12 13 14 15 16 17 18 19 20 21 22 23
000
FTUS41 KALY 281300 AAA
TAFALB
TAF AMD
KALB 281349Z 2814/2912 34011KT P6SM VCSH SCT035 BKN060
     FM281600 32010KT P6SM SCT035 BKN100
     FM282200 32005KT P6SM SCT250=

USA.gov is the U.S. government's official web portal to all federal, state and local government web resources and services.